createdAt,value
2023-03-05T00:00:05.428Z,81.40
2023-03-05T00:01:05.377Z,79.23
2023-03-05T00:02:06.955Z,80.16
2023-03-05T00:03:05.412Z,82.13
2023-03-05T00:04:05.370Z,82.03
2023-03-05T00:05:05.361Z,78.19
2023-03-05T00:06:05.336Z,77.57
2023-03-05T00:07:05.316Z,77.88
2023-03-05T00:08:05.295Z,76.64
2023-03-05T00:09:05.410Z,75.50
2023-03-05T00:10:05.288Z,77.15
2023-03-05T00:11:05.291Z,76.74
2023-03-05T00:12:05.296Z,77.36
2023-03-05T00:13:05.255Z,78.19
2023-03-05T00:14:05.288Z,77.36
2023-03-05T00:15:05.260Z,76.64
2023-03-05T00:16:05.288Z,76.95
2023-03-05T00:17:05.269Z,75.29
2023-03-05T00:18:05.182Z,77.47
2023-03-05T00:19:05.207Z,79.64
2023-03-05T00:20:05.297Z,77.47
2023-03-05T00:21:05.211Z,78.30
2023-03-05T00:22:05.195Z,78.30
2023-03-05T00:23:05.153Z,78.30
2023-03-05T00:24:05.167Z,78.50
2023-03-05T00:25:05.165Z,79.44
2023-03-05T00:26:05.151Z,78.40
2023-03-05T00:27:05.219Z,77.88
2023-03-05T00:28:05.126Z,78.30
2023-03-05T00:29:05.098Z,76.64
2023-03-05T00:30:05.122Z,76.12
2023-03-05T00:31:05.178Z,78.19
2023-03-05T00:32:05.117Z,78.19
2023-03-05T00:33:05.058Z,77.78
2023-03-05T00:34:05.056Z,77.05
2023-03-05T00:35:05.073Z,76.84
2023-03-05T00:36:05.092Z,78.19
2023-03-05T00:37:05.021Z,76.32
2023-03-05T00:38:04.992Z,77.26
2023-03-05T00:39:04.986Z,76.64
2023-03-05T00:40:05.049Z,77.47
2023-03-05T00:41:04.977Z,78.71
2023-03-05T00:42:04.957Z,79.23
2023-03-05T00:43:04.960Z,77.36
2023-03-05T00:44:04.975Z,79.13
2023-03-05T00:45:04.911Z,77.98
2023-03-05T00:46:04.966Z,78.19
2023-03-05T00:47:04.908Z,77.78
2023-03-05T00:48:04.944Z,75.92
2023-03-05T00:49:04.926Z,74.91
2023-03-05T00:50:04.935Z,74.81
2023-03-05T00:51:04.898Z,75.12
2023-03-05T00:52:04.896Z,75.43
2023-03-05T00:53:04.862Z,77.29
2023-03-05T00:54:04.859Z,76.98
2023-03-05T00:55:04.827Z,78.33
2023-03-05T00:56:04.901Z,76.36
2023-03-05T00:57:04.846Z,75.95
2023-03-05T00:58:04.771Z,74.81
2023-03-05T00:59:04.775Z,74.81
2023-03-05T01:00:04.796Z,74.50
2023-03-05T01:01:04.764Z,75.22
2023-03-05T01:02:04.797Z,75.74
2023-03-05T01:03:04.749Z,75.74
2023-03-05T01:04:04.713Z,75.63
2023-03-05T01:05:04.733Z,73.98
2023-03-05T01:06:04.704Z,74.40
2023-03-05T01:07:04.680Z,75.22
2023-03-05T01:08:04.730Z,77.29
2023-03-05T01:09:04.674Z,78.64
2023-03-05T01:10:04.638Z,76.78
2023-03-05T01:11:04.672Z,78.54
2023-03-05T01:12:04.698Z,76.26
2023-03-05T01:13:04.619Z,77.71
2023-03-05T01:14:04.603Z,77.19
2023-03-05T01:15:04.709Z,76.98
2023-03-05T01:16:04.681Z,79.06
2023-03-05T01:17:04.603Z,78.12
2023-03-05T01:18:04.544Z,78.23
2023-03-05T01:19:04.567Z,76.15
2023-03-05T01:20:04.526Z,76.98
2023-03-05T01:21:04.581Z,76.57
2023-03-05T01:22:04.553Z,76.05
2023-03-05T01:23:04.549Z,76.05
2023-03-05T01:24:04.561Z,75.53
2023-03-05T01:25:04.515Z,74.81
2023-03-05T01:26:04.490Z,75.53
2023-03-05T01:27:04.521Z,74.81
2023-03-05T01:28:04.460Z,73.77
2023-03-05T01:29:04.495Z,74.81
2023-03-05T01:30:04.448Z,75.74
2023-03-05T01:31:04.465Z,75.63
2023-03-05T01:32:04.441Z,76.78
2023-03-05T01:33:04.455Z,76.15
2023-03-05T01:34:04.411Z,74.91
2023-03-05T01:35:04.362Z,75.43
2023-03-05T01:36:04.445Z,75.53
2023-03-05T01:37:04.413Z,75.74
2023-03-05T01:38:04.428Z,76.26
2023-03-05T01:39:04.389Z,75.84
2023-03-05T01:40:04.328Z,76.57
2023-03-05T01:41:04.411Z,76.67
2023-03-05T01:42:04.396Z,75.74
2023-03-05T01:43:04.296Z,76.26
2023-03-05T01:44:04.301Z,75.95
2023-03-05T01:45:04.292Z,74.60
2023-03-05T01:46:04.336Z,76.36
2023-03-05T01:47:04.318Z,73.25
2023-03-05T01:48:04.268Z,75.43
2023-03-05T01:49:04.249Z,77.19
2023-03-05T01:50:04.253Z,75.02
2023-03-05T01:51:04.272Z,74.40
2023-03-05T01:52:04.208Z,76.78
2023-03-05T01:53:04.277Z,76.57
2023-03-05T01:54:04.214Z,77.81
2023-03-05T01:55:04.147Z,76.98
2023-03-05T01:56:04.155Z,78.33
2023-03-05T01:57:04.152Z,76.98
2023-03-05T01:58:04.161Z,79.58
2023-03-05T01:59:04.229Z,80.09
2023-03-05T02:00:04.179Z,79.68
2023-03-05T02:01:04.195Z,75.95
2023-03-05T02:02:04.112Z,76.98
2023-03-05T02:03:04.078Z,76.57
2023-03-05T02:04:04.182Z,73.15
2023-03-05T02:05:04.098Z,75.12
2023-03-05T02:06:04.079Z,74.71
2023-03-05T02:07:04.139Z,73.05
2023-03-05T02:08:04.011Z,72.11
2023-03-05T02:09:04.018Z,72.01
2023-03-05T02:10:04.007Z,72.05
2023-03-05T02:11:04.025Z,71.80
2023-03-05T02:12:03.998Z,71.22
2023-03-05T02:13:04.006Z,71.80
2023-03-05T02:14:03.997Z,71.80
2023-03-05T02:15:03.959Z,73.25
2023-03-05T02:16:04.055Z,74.60
2023-03-05T02:17:04.015Z,72.74
2023-03-05T02:18:03.980Z,71.80
2023-03-05T02:19:03.983Z,71.39
2023-03-05T02:20:03.940Z,70.59
2023-03-05T02:21:03.890Z,71.22
2023-03-05T02:22:03.930Z,72.56
2023-03-05T02:23:03.904Z,72.05
2023-03-05T02:24:03.900Z,71.94
2023-03-05T02:25:03.909Z,72.36
2023-03-05T02:26:03.850Z,72.05
2023-03-05T02:27:03.852Z,75.46
2023-03-05T02:28:03.888Z,71.42
2023-03-05T02:29:03.867Z,72.15
2023-03-05T02:30:03.900Z,72.88
2023-03-05T02:31:03.872Z,71.84
2023-03-05T02:32:03.945Z,70.59
2023-03-05T02:33:03.791Z,70.70
2023-03-05T02:34:03.839Z,70.90
2023-03-05T02:35:03.812Z,71.11
2023-03-05T02:36:03.772Z,70.80
2023-03-05T02:37:03.766Z,69.14
2023-03-05T02:38:03.742Z,70.70
2023-03-05T02:39:03.736Z,70.59
2023-03-05T02:40:03.727Z,70.49
2023-03-05T02:41:03.704Z,69.56
2023-03-05T02:42:03.709Z,69.87
2023-03-05T02:43:03.717Z,70.80
2023-03-05T02:44:03.720Z,70.18
2023-03-05T02:45:03.764Z,69.56
2023-03-05T02:46:03.714Z,70.49
2023-03-05T02:47:03.667Z,70.28
2023-03-05T02:48:03.691Z,69.87
2023-03-05T02:49:03.670Z,72.25
2023-03-05T02:50:03.615Z,69.45
2023-03-05T02:51:03.596Z,69.56
2023-03-05T02:52:03.592Z,69.87
2023-03-05T02:53:03.695Z,68.73
2023-03-05T02:54:03.581Z,69.87
2023-03-05T02:55:03.593Z,72.77
2023-03-05T02:56:03.617Z,73.80
2023-03-05T02:57:03.530Z,71.63
2023-03-05T02:58:03.541Z,71.84
2023-03-05T02:59:03.605Z,72.98
2023-03-05T03:00:03.617Z,72.15
2023-03-05T03:01:03.589Z,72.56
2023-03-05T03:02:03.468Z,72.05
2023-03-05T03:03:03.547Z,71.32
2023-03-05T03:04:03.462Z,70.39
2023-03-05T03:05:03.482Z,71.63
2023-03-05T03:06:03.460Z,71.94
2023-03-05T03:07:03.441Z,72.98
2023-03-05T03:08:03.420Z,71.94
2023-03-05T03:09:03.416Z,70.39
2023-03-05T03:10:03.413Z,71.73
2023-03-05T03:11:03.389Z,71.84
2023-03-05T03:12:03.399Z,71.73
2023-03-05T03:13:03.431Z,72.15
2023-03-05T03:14:03.392Z,71.22
2023-03-05T03:15:03.354Z,71.22
2023-03-05T03:16:03.353Z,71.63
2023-03-05T03:17:03.426Z,72.67
2023-03-05T03:18:03.383Z,72.25
2023-03-05T03:19:03.329Z,71.32
2023-03-05T03:20:03.383Z,71.73
2023-03-05T03:21:03.295Z,71.01
2023-03-05T03:22:03.297Z,72.77
2023-03-05T03:23:03.307Z,71.73
2023-03-05T03:24:03.267Z,71.84
2023-03-05T03:25:03.368Z,71.94
2023-03-05T03:26:03.242Z,73.60
2023-03-05T03:27:03.350Z,72.77
2023-03-05T03:28:03.237Z,73.08
2023-03-05T03:29:03.244Z,73.18
2023-03-05T03:30:03.205Z,76.29
2023-03-05T03:31:03.344Z,75.05
2023-03-05T03:32:03.283Z,74.63
2023-03-05T03:33:03.226Z,73.18
2023-03-05T03:34:03.189Z,74.84
2023-03-05T03:35:03.196Z,73.49
2023-03-05T03:36:03.209Z,73.28
2023-03-05T03:37:03.135Z,73.91
2023-03-05T03:38:03.208Z,73.49
2023-03-05T03:39:03.126Z,75.88
2023-03-05T03:40:03.101Z,73.60
2023-03-05T03:41:03.108Z,73.08
2023-03-05T03:42:03.082Z,72.05
2023-03-05T03:43:03.159Z,74.74
2023-03-05T03:44:03.113Z,72.98
2023-03-05T03:45:03.051Z,73.80
2023-03-05T03:46:03.094Z,75.67
2023-03-05T03:47:03.045Z,75.36
2023-03-05T03:48:03.048Z,73.91
2023-03-05T03:49:03.037Z,73.39
2023-03-05T03:50:03.046Z,74.53
2023-03-05T03:51:03.027Z,73.80
2023-03-05T03:52:02.973Z,74.74
2023-03-05T03:53:03.069Z,73.28
2023-03-05T03:54:02.953Z,72.98
2023-03-05T03:55:02.959Z,71.87
2023-03-05T03:56:03.040Z,71.45
2023-03-05T03:57:02.936Z,71.87
2023-03-05T03:58:02.969Z,72.28
2023-03-05T03:59:02.918Z,73.63
2023-03-05T04:00:02.949Z,74.46
2023-03-05T04:01:02.913Z,74.57
2023-03-05T04:02:02.884Z,73.22
2023-03-05T04:03:02.931Z,72.39
2023-03-05T04:04:02.884Z,71.14
2023-03-05T04:05:02.900Z,71.14
2023-03-05T04:06:02.945Z,71.35
2023-03-05T04:07:02.863Z,71.25
2023-03-05T04:08:02.825Z,72.18
2023-03-05T04:09:02.867Z,72.39
2023-03-05T04:10:02.855Z,71.87
2023-03-05T04:11:02.792Z,71.77
2023-03-05T04:12:02.874Z,72.49
2023-03-05T04:13:02.781Z,74.05
2023-03-05T04:14:02.891Z,72.28
2023-03-05T04:15:02.773Z,70.31
2023-03-05T04:16:02.792Z,73.84
2023-03-05T04:17:02.730Z,72.91
2023-03-05T04:18:02.729Z,72.70
2023-03-05T04:19:02.814Z,71.14
2023-03-05T04:20:02.828Z,73.43
2023-03-05T04:21:02.774Z,72.60
2023-03-05T04:22:02.693Z,71.35
2023-03-05T04:23:02.706Z,71.56
2023-03-05T04:24:02.688Z,71.14
2023-03-05T04:25:02.669Z,72.28
2023-03-05T04:26:02.667Z,70.52
2023-03-05T04:27:02.693Z,74.26
2023-03-05T04:28:02.664Z,71.97
2023-03-05T04:29:02.593Z,72.39
2023-03-05T04:30:02.600Z,71.14
2023-03-05T04:31:02.749Z,70.94
2023-03-05T04:32:02.657Z,70.83
2023-03-05T04:33:02.554Z,70.76
2023-03-05T04:34:02.560Z,70.45
2023-03-05T04:35:02.621Z,71.28
2023-03-05T04:36:02.532Z,73.57
2023-03-05T04:37:02.624Z,74.40
2023-03-05T04:38:02.511Z,71.91
2023-03-05T04:39:02.505Z,72.63
2023-03-05T04:40:02.483Z,69.42
2023-03-05T04:41:02.525Z,71.91
2023-03-05T04:42:02.534Z,71.59
2023-03-05T04:43:02.469Z,70.87
2023-03-05T04:44:02.476Z,72.11
2023-03-05T04:45:02.558Z,72.11
2023-03-05T04:46:02.429Z,70.66
2023-03-05T04:47:02.454Z,70.76
2023-03-05T04:48:02.403Z,70.66
2023-03-05T04:49:02.412Z,71.28
2023-03-05T04:50:02.477Z,70.14
2023-03-05T04:51:02.405Z,69.62
2023-03-05T04:52:02.431Z,70.76
2023-03-05T04:53:02.472Z,71.59
2023-03-05T04:54:02.371Z,71.21
2023-03-05T04:55:02.350Z,71.31
2023-03-05T04:56:02.334Z,72.11
2023-03-05T04:57:02.390Z,71.21
2023-03-05T04:58:02.335Z,70.17
2023-03-05T04:59:02.338Z,71.31
2023-03-05T05:00:02.290Z,71.31
2023-03-05T05:01:02.264Z,70.90
2023-03-05T05:02:02.422Z,70.28
2023-03-05T05:03:02.306Z,69.55
2023-03-05T05:04:02.256Z,70.97
2023-03-05T05:05:02.241Z,70.17
2023-03-05T05:06:02.236Z,69.96
2023-03-05T05:07:02.229Z,69.55
2023-03-05T05:08:02.194Z,71.73
2023-03-05T05:09:02.200Z,71.73
2023-03-05T05:10:02.209Z,72.87
2023-03-05T05:11:02.208Z,71.94
2023-03-05T05:12:02.167Z,69.45
2023-03-05T05:13:02.183Z,71.62
2023-03-05T05:14:02.126Z,70.69
2023-03-05T05:15:02.133Z,72.66
2023-03-05T05:16:02.240Z,72.45
2023-03-05T05:17:02.115Z,73.60
2023-03-05T05:18:02.164Z,68.51
2023-03-05T05:19:02.142Z,68.41
2023-03-05T05:20:02.085Z,70.59
2023-03-05T05:21:02.082Z,70.28
2023-03-05T05:22:02.072Z,68.82
2023-03-05T05:23:02.084Z,67.27
2023-03-05T05:24:02.049Z,70.38
2023-03-05T05:25:02.023Z,68.41
2023-03-05T05:26:02.021Z,69.86
2023-03-05T05:27:02.041Z,67.06
2023-03-05T05:28:02.006Z,66.54
2023-03-05T05:29:02.024Z,67.16
2023-03-05T05:30:01.996Z,67.47
2023-03-05T05:31:01.966Z,70.07
2023-03-05T05:32:02.015Z,70.38
2023-03-05T05:33:01.950Z,72.66
2023-03-05T05:34:01.955Z,71.73
2023-03-05T05:35:01.905Z,68.30
2023-03-05T05:36:01.950Z,67.37
2023-03-05T05:37:01.872Z,68.20
2023-03-05T05:38:01.877Z,67.37
2023-03-05T05:39:01.842Z,67.79
2023-03-05T05:40:01.956Z,67.47
2023-03-05T05:41:01.836Z,67.27
2023-03-05T05:42:01.821Z,66.85
2023-03-05T05:43:01.841Z,69.65
2023-03-05T05:44:01.813Z,67.37
2023-03-05T05:45:01.856Z,66.44
2023-03-05T05:46:01.933Z,66.85
2023-03-05T05:47:01.781Z,67.68
2023-03-05T05:48:01.788Z,66.75
2023-03-05T05:49:01.749Z,66.96
2023-03-05T05:50:01.814Z,66.64
2023-03-05T05:51:01.721Z,65.81
2023-03-05T05:52:01.709Z,67.06
2023-03-05T05:53:01.693Z,66.64
2023-03-05T05:54:01.688Z,66.54
2023-03-05T05:55:01.691Z,66.33
2023-03-05T05:56:01.685Z,65.08
2023-03-05T05:57:01.656Z,67.68
2023-03-05T05:58:01.633Z,68.20
2023-03-05T05:59:01.639Z,66.02
2023-03-05T06:00:01.597Z,66.33
2023-03-05T06:01:01.616Z,66.22
2023-03-05T06:02:01.687Z,66.44
2023-03-05T06:03:01.821Z,65.70
2023-03-05T06:04:01.589Z,64.98
2023-03-05T06:05:01.564Z,65.70
2023-03-05T06:06:01.577Z,63.94
2023-03-05T06:07:01.583Z,64.98
2023-03-05T06:08:01.577Z,64.25
2023-03-05T06:09:01.527Z,65.19
2023-03-05T06:10:01.508Z,64.46
2023-03-05T06:11:01.514Z,63.73
2023-03-05T06:12:01.544Z,66.33
2023-03-05T06:13:01.506Z,64.36
2023-03-05T06:14:01.499Z,64.46
2023-03-05T06:15:01.503Z,65.50
2023-03-05T06:16:01.492Z,64.36
2023-03-05T06:17:01.462Z,65.39
2023-03-05T06:18:01.466Z,63.73
2023-03-05T06:19:03.378Z,63.42
2023-03-05T06:20:01.424Z,62.70
2023-03-05T06:21:01.423Z,64.87
2023-03-05T06:22:01.404Z,64.77
2023-03-05T06:23:01.379Z,64.77
2023-03-05T06:24:01.373Z,66.02
2023-03-05T06:25:01.525Z,66.22
2023-03-05T06:26:01.376Z,63.53
2023-03-05T06:27:01.334Z,63.11
2023-03-05T06:28:01.374Z,62.28
2023-03-05T06:29:01.351Z,63.42
2023-03-05T06:30:01.354Z,67.16
2023-03-05T06:31:01.422Z,64.15
2023-03-05T06:32:01.348Z,63.84
2023-03-05T06:33:01.283Z,63.63
2023-03-05T06:34:01.391Z,67.89
2023-03-05T06:35:01.251Z,67.06
2023-03-05T06:36:01.327Z,65.70
2023-03-05T06:37:01.323Z,64.67
2023-03-05T06:38:01.238Z,65.29
2023-03-05T06:39:01.232Z,64.25
2023-03-05T06:40:01.229Z,63.84
2023-03-05T06:41:01.219Z,66.20
2023-03-05T06:42:01.232Z,64.64
2023-03-05T06:43:01.174Z,64.33
2023-03-05T06:44:01.165Z,64.95
2023-03-05T06:45:01.223Z,71.49
2023-03-05T06:46:01.253Z,67.55
2023-03-05T06:47:01.188Z,64.85
2023-03-05T06:48:01.168Z,64.54
2023-03-05T06:49:01.142Z,64.23
2023-03-05T06:50:01.117Z,64.67
2023-03-05T06:51:01.086Z,68.07
2023-03-05T06:52:01.085Z,64.75
2023-03-05T06:53:01.075Z,66.51
2023-03-05T06:54:01.067Z,64.43
2023-03-05T06:55:01.086Z,65.99
2023-03-05T06:56:01.060Z,65.78
2023-03-05T06:57:01.072Z,67.03
2023-03-05T06:58:01.048Z,66.61
2023-03-05T06:59:01.013Z,66.41
2023-03-05T07:00:01.032Z,67.13
2023-03-05T07:01:01.121Z,66.41
2023-03-05T07:02:01.137Z,66.09
2023-03-05T07:03:01.022Z,65.99
2023-03-05T07:04:00.988Z,66.20
2023-03-05T07:05:00.953Z,68.59
2023-03-05T07:06:00.998Z,68.69
2023-03-05T07:07:00.948Z,68.79
2023-03-05T07:08:00.930Z,66.09
2023-03-05T07:09:00.966Z,65.68
2023-03-05T07:10:00.951Z,65.78
2023-03-05T07:11:00.940Z,67.44
2023-03-05T07:12:00.875Z,65.68
2023-03-05T07:13:00.893Z,67.76
2023-03-05T07:14:00.857Z,69.00
2023-03-05T07:15:00.874Z,70.14
2023-03-05T07:16:00.926Z,70.04
2023-03-05T07:17:00.839Z,67.86
2023-03-05T07:18:00.854Z,68.17
2023-03-05T07:19:00.820Z,67.03
2023-03-05T07:20:00.798Z,67.34
2023-03-05T07:21:00.838Z,67.96
2023-03-05T07:22:00.789Z,69.42
2023-03-05T07:23:00.793Z,69.31
2023-03-05T07:24:00.748Z,69.52
2023-03-05T07:25:00.775Z,69.52
2023-03-05T07:26:00.794Z,68.69
2023-03-05T07:27:00.746Z,68.90
2023-03-05T07:28:00.725Z,68.59
2023-03-05T07:29:00.757Z,69.62
2023-03-05T07:30:00.739Z,68.27
2023-03-05T07:31:00.802Z,70.76
2023-03-05T07:32:00.715Z,70.25
2023-03-05T07:33:00.670Z,71.39
2023-03-05T07:34:00.663Z,71.59
2023-03-05T07:35:00.702Z,71.08
2023-03-05T07:36:00.712Z,71.08
2023-03-05T07:37:00.642Z,71.80
2023-03-05T07:38:00.642Z,71.70
2023-03-05T07:39:00.621Z,70.35
2023-03-05T07:40:00.613Z,71.59
2023-03-05T07:41:00.580Z,71.80
2023-03-05T07:42:00.602Z,71.59
2023-03-05T07:43:00.586Z,71.39
2023-03-05T07:44:00.589Z,72.94
2023-03-05T07:45:00.589Z,72.22
2023-03-05T07:46:00.623Z,71.49
2023-03-05T07:47:00.541Z,73.46
2023-03-05T07:48:00.545Z,73.57
2023-03-05T07:49:00.574Z,72.94
2023-03-05T07:50:00.529Z,72.32
2023-03-05T07:51:00.503Z,73.25
2023-03-05T07:52:00.489Z,72.32
2023-03-05T07:53:00.489Z,71.59
2023-03-05T07:54:00.478Z,72.32
2023-03-05T07:55:00.445Z,72.84
2023-03-05T07:56:00.460Z,71.80
2023-03-05T07:57:00.436Z,72.32
2023-03-05T07:58:00.415Z,73.88
2023-03-05T07:59:00.419Z,72.53
2023-03-05T08:00:00.399Z,73.57
2023-03-05T08:01:00.410Z,73.46
2023-03-05T08:02:00.391Z,73.36
2023-03-05T08:03:00.466Z,71.59
2023-03-05T08:04:00.408Z,74.50
2023-03-05T08:05:00.361Z,74.60
2023-03-05T08:06:00.364Z,73.57
2023-03-05T08:07:00.355Z,72.94
2023-03-05T08:08:00.336Z,73.25
2023-03-05T08:09:00.286Z,72.94
2023-03-05T08:10:00.306Z,72.74
2023-03-05T08:11:01.029Z,73.43
2023-03-05T08:12:00.265Z,72.18
2023-03-05T08:13:00.259Z,73.32
2023-03-05T08:14:00.260Z,71.97
2023-03-05T08:15:00.256Z,73.53
2023-03-05T08:16:00.258Z,72.80
2023-03-05T08:17:00.285Z,74.77
2023-03-05T08:18:00.219Z,74.98
2023-03-05T08:19:00.210Z,72.28
2023-03-05T08:20:00.236Z,74.26
2023-03-05T08:21:00.173Z,72.91
2023-03-05T08:22:00.190Z,73.32
2023-03-05T08:23:00.160Z,72.25
2023-03-05T08:24:00.161Z,71.84
2023-03-05T08:25:00.162Z,72.25
2023-03-05T08:26:00.148Z,71.22
2023-03-05T08:27:00.135Z,71.42
2023-03-05T08:28:00.121Z,71.63
2023-03-05T08:29:00.144Z,72.77
2023-03-05T08:30:00.125Z,71.84
2023-03-05T08:31:00.177Z,71.42
2023-03-05T08:32:00.213Z,72.56
2023-03-05T08:33:00.060Z,71.22
2023-03-05T08:34:00.078Z,71.53
2023-03-05T08:35:00.043Z,73.08
2023-03-05T08:36:00.125Z,72.15
2023-03-05T08:37:00.021Z,72.15
2023-03-05T08:38:00.071Z,72.25
2023-03-05T08:38:59.994Z,71.01
2023-03-05T08:40:00.024Z,71.53
2023-03-05T08:41:00.003Z,72.05
2023-03-05T08:41:59.986Z,72.67
2023-03-05T08:42:59.976Z,73.91
2023-03-05T08:43:59.981Z,72.56
2023-03-05T08:44:59.947Z,72.36
2023-03-05T08:45:59.914Z,72.88
2023-03-05T08:46:59.996Z,71.84
2023-03-05T08:47:59.937Z,72.67
2023-03-05T08:48:59.902Z,72.77
2023-03-05T08:49:59.886Z,72.46
2023-03-05T08:50:59.886Z,72.67
2023-03-05T08:51:59.865Z,72.46
2023-03-05T08:52:59.875Z,72.25
2023-03-05T08:53:59.845Z,71.53
2023-03-05T08:54:59.845Z,72.67
2023-03-05T08:55:59.897Z,72.56
2023-03-05T08:56:59.809Z,72.36
2023-03-05T08:57:59.791Z,73.49
2023-03-05T08:58:59.783Z,73.39
2023-03-05T08:59:59.800Z,72.42
2023-03-05T09:00:59.793Z,70.87
2023-03-05T09:01:59.833Z,69.63
2023-03-05T09:02:59.780Z,70.97
2023-03-05T09:03:59.754Z,71.49
2023-03-05T09:04:59.727Z,69.32
2023-03-05T09:05:59.727Z,71.49
2023-03-05T09:06:59.746Z,70.76
2023-03-05T09:07:59.730Z,68.18
2023-03-05T09:08:59.696Z,68.90
2023-03-05T09:09:59.670Z,68.59
2023-03-05T09:10:59.665Z,67.45
2023-03-05T09:11:59.672Z,67.35
2023-03-05T09:12:59.677Z,66.93
2023-03-05T09:13:59.657Z,67.35
2023-03-05T09:14:59.639Z,67.14
2023-03-05T09:15:59.694Z,67.45
2023-03-05T09:16:59.615Z,68.28
2023-03-05T09:17:59.631Z,69.11
2023-03-05T09:18:59.574Z,68.18
2023-03-05T09:19:59.617Z,66.72
2023-03-05T09:20:59.590Z,66.83
2023-03-05T09:21:59.559Z,67.66
2023-03-05T09:22:59.555Z,69.11
2023-03-05T09:23:59.589Z,67.14
2023-03-05T09:24:59.536Z,67.45
2023-03-05T09:25:59.511Z,68.90
2023-03-05T09:26:59.535Z,68.07
2023-03-05T09:27:59.494Z,66.83
2023-03-05T09:28:59.516Z,67.24
2023-03-05T09:29:59.469Z,68.49
2023-03-05T09:30:59.464Z,67.86
2023-03-05T09:31:59.571Z,69.94
2023-03-05T09:32:59.423Z,68.18
2023-03-05T09:33:59.450Z,67.86
2023-03-05T09:34:59.444Z,68.28
2023-03-05T09:35:59.454Z,67.35
2023-03-05T09:36:59.386Z,67.48
2023-03-05T09:37:59.417Z,67.90
2023-03-05T09:38:59.378Z,68.52
2023-03-05T09:39:59.372Z,69.35
2023-03-05T09:40:59.353Z,67.58
2023-03-05T09:41:59.341Z,67.48
2023-03-05T09:42:59.347Z,67.07
2023-03-05T09:43:59.349Z,67.27
2023-03-05T09:44:59.346Z,67.86
2023-03-05T09:45:59.348Z,66.93
2023-03-05T09:46:59.407Z,67.24
2023-03-05T09:47:59.321Z,67.66
2023-03-05T09:48:59.285Z,67.55
2023-03-05T09:49:59.266Z,68.28
2023-03-05T09:50:59.280Z,67.55
2023-03-05T09:51:59.238Z,68.07
2023-03-05T09:52:59.240Z,67.42
2023-03-05T09:54:01.564Z,66.90
2023-03-05T09:54:59.231Z,66.28
2023-03-05T09:55:59.232Z,65.04
2023-03-05T09:56:59.218Z,66.08
2023-03-05T09:57:59.196Z,66.80
2023-03-05T09:58:59.166Z,66.08
2023-03-05T09:59:59.170Z,65.25
2023-03-05T10:00:59.161Z,64.52
2023-03-05T10:01:59.160Z,64.52
2023-03-05T10:02:59.187Z,63.90
2023-03-05T10:03:59.189Z,64.49
2023-03-05T10:04:59.117Z,64.28
2023-03-05T10:05:59.097Z,63.76
2023-03-05T10:06:59.115Z,63.35
2023-03-05T10:07:59.095Z,62.73
2023-03-05T10:08:59.071Z,63.15
2023-03-05T10:09:59.078Z,63.74
2023-03-05T10:10:59.048Z,62.70
2023-03-05T10:11:59.057Z,62.60
2023-03-05T10:12:59.065Z,64.04
2023-03-05T10:13:59.025Z,63.43
2023-03-05T10:14:59.018Z,63.43
2023-03-05T10:15:59.013Z,64.12
2023-03-05T10:16:58.969Z,62.46
2023-03-05T10:17:58.976Z,61.25
2023-03-05T10:18:58.987Z,62.49
2023-03-05T10:19:58.989Z,61.64
2023-03-05T10:20:58.987Z,61.74
2023-03-05T10:21:58.941Z,61.43
2023-03-05T10:22:58.915Z,61.22
2023-03-05T10:23:58.949Z,62.05
2023-03-05T10:24:58.911Z,60.50
2023-03-05T10:25:58.922Z,61.12
2023-03-05T10:26:58.956Z,60.91
2023-03-05T10:27:58.901Z,62.02
2023-03-05T10:28:58.886Z,62.13
2023-03-05T10:29:58.863Z,62.02
2023-03-05T10:30:58.883Z,60.99
2023-03-05T10:31:58.920Z,61.10
2023-03-05T10:32:58.831Z,61.20
2023-03-05T10:33:58.854Z,60.99
2023-03-05T10:34:58.814Z,60.37
2023-03-05T10:35:58.869Z,60.06
2023-03-05T10:36:58.770Z,60.37
2023-03-05T10:37:58.819Z,60.89
2023-03-05T10:38:58.770Z,60.99
2023-03-05T10:39:58.799Z,61.20
2023-03-05T10:40:58.849Z,61.20
2023-03-05T10:41:58.740Z,61.71
2023-03-05T10:42:58.733Z,61.20
2023-03-05T10:43:58.708Z,61.61
2023-03-05T10:44:58.686Z,61.51
2023-03-05T10:45:58.813Z,60.89
2023-03-05T10:46:58.666Z,61.71
2023-03-05T10:47:58.678Z,61.43
2023-03-05T10:48:58.707Z,61.74
2023-03-05T10:49:58.676Z,62.46
2023-03-05T10:50:58.650Z,63.29
2023-03-05T10:51:58.630Z,62.77
2023-03-05T10:52:58.613Z,62.05
2023-03-05T10:53:58.633Z,63.40
2023-03-05T10:54:58.683Z,63.09
2023-03-05T10:55:58.610Z,63.50
2023-03-05T10:56:58.568Z,62.77
2023-03-05T10:57:58.573Z,63.29
2023-03-05T10:58:58.558Z,63.71
2023-03-05T10:59:58.538Z,63.81
2023-03-05T11:00:58.583Z,63.50
2023-03-05T11:01:58.509Z,64.32
2023-03-05T11:02:58.564Z,64.32
2023-03-05T11:03:58.492Z,63.95
2023-03-05T11:04:58.456Z,63.64
2023-03-05T11:05:58.463Z,62.81
2023-03-05T11:06:58.484Z,64.04
2023-03-05T11:07:58.456Z,63.64
2023-03-05T11:08:58.424Z,65.60
2023-03-05T11:09:58.456Z,65.08
2023-03-05T11:10:58.419Z,65.29
2023-03-05T11:11:58.419Z,64.25
2023-03-05T11:12:58.396Z,64.36
2023-03-05T11:13:58.396Z,63.74
2023-03-05T11:14:58.347Z,64.49
2023-03-05T11:15:58.386Z,64.70
2023-03-05T11:16:58.336Z,65.32
2023-03-05T11:17:58.348Z,65.01
2023-03-05T11:18:58.325Z,64.80
2023-03-05T11:19:58.326Z,64.49
2023-03-05T11:20:58.300Z,64.49
2023-03-05T11:21:59.797Z,64.70
2023-03-05T11:22:58.286Z,65.11
2023-03-05T11:23:58.268Z,65.32
2023-03-05T11:24:58.274Z,65.94
2023-03-05T11:25:58.274Z,65.87
2023-03-05T11:26:58.250Z,65.66
2023-03-05T11:27:58.229Z,66.38
2023-03-05T11:28:58.215Z,66.62
2023-03-05T11:29:58.224Z,66.93
2023-03-05T11:30:58.321Z,67.86
2023-03-05T11:31:58.531Z,68.28
2023-03-05T11:32:58.177Z,68.10
2023-03-05T11:33:58.175Z,69.24
2023-03-05T11:34:58.166Z,69.14
2023-03-05T11:35:58.203Z,69.45
2023-03-05T11:36:58.137Z,70.49
2023-03-05T11:37:58.149Z,68.62
2023-03-05T11:38:58.106Z,68.62
2023-03-05T11:39:58.106Z,68.93
2023-03-05T11:40:58.101Z,69.35
2023-03-05T11:41:58.089Z,70.07
2023-03-05T11:42:58.072Z,69.14
2023-03-05T11:43:58.085Z,68.21
2023-03-05T11:44:58.077Z,68.83
2023-03-05T11:45:58.082Z,68.80
2023-03-05T11:46:58.044Z,68.21
2023-03-05T11:47:58.030Z,68.38
2023-03-05T11:48:58.037Z,67.76
2023-03-05T11:49:58.008Z,67.97
2023-03-05T11:50:58.003Z,68.18
2023-03-05T11:51:57.997Z,69.42
2023-03-05T11:52:57.978Z,68.70
2023-03-05T11:53:57.964Z,67.97
2023-03-05T11:54:57.954Z,68.38
2023-03-05T11:55:58.009Z,68.07
2023-03-05T11:56:57.955Z,67.97
2023-03-05T11:57:57.937Z,68.07
2023-03-05T11:58:57.895Z,67.24
2023-03-05T11:59:57.906Z,67.14
2023-03-05T12:00:57.912Z,67.55
2023-03-05T12:01:57.913Z,67.42
2023-03-05T12:02:57.939Z,67.11
2023-03-05T12:03:58.006Z,66.59
2023-03-05T12:04:57.845Z,67.42
2023-03-05T12:05:57.844Z,66.97
2023-03-05T12:06:57.952Z,66.87
2023-03-05T12:07:57.848Z,66.66
2023-03-05T12:08:57.835Z,66.56
2023-03-05T12:09:57.801Z,65.73
2023-03-05T12:10:57.810Z,65.42
2023-03-05T12:11:57.780Z,66.15
2023-03-05T12:12:57.753Z,66.02
2023-03-05T12:13:57.754Z,64.67
2023-03-05T12:14:57.794Z,65.81
2023-03-05T12:15:57.785Z,66.84
2023-03-05T12:16:57.729Z,65.91
2023-03-05T12:17:57.743Z,65.88
2023-03-05T12:18:57.729Z,65.88
2023-03-05T12:19:57.731Z,64.95
2023-03-05T12:20:57.692Z,65.44
2023-03-05T12:21:57.710Z,64.51
2023-03-05T12:22:57.650Z,63.89
2023-03-05T12:23:57.714Z,64.09
2023-03-05T12:24:57.642Z,65.30
2023-03-05T12:25:57.649Z,63.96
2023-03-05T12:26:57.628Z,64.14
2023-03-05T12:27:57.627Z,63.10
2023-03-05T12:28:57.622Z,61.97
2023-03-05T12:29:57.591Z,61.55
2023-03-05T12:30:57.568Z,61.99
2023-03-05T12:31:57.606Z,61.58
2023-03-05T12:32:57.566Z,62.51
2023-03-05T12:33:58.003Z,63.23
2023-03-05T12:34:57.517Z,62.62
2023-03-05T12:35:57.544Z,62.20
2023-03-05T12:36:57.535Z,61.58
2023-03-05T12:37:57.505Z,62.41
2023-03-05T12:38:57.510Z,61.92
2023-03-05T12:39:57.493Z,62.54
2023-03-05T12:40:57.465Z,61.82
2023-03-05T12:41:57.492Z,62.34
2023-03-05T12:42:57.472Z,61.71
2023-03-05T12:43:57.510Z,61.71
2023-03-05T12:44:57.437Z,61.71
2023-03-05T12:45:57.421Z,62.44
2023-03-05T12:46:57.480Z,62.23
2023-03-05T12:47:57.429Z,61.51
2023-03-05T12:48:57.453Z,60.99
2023-03-05T12:49:57.377Z,60.47
2023-03-05T12:50:57.357Z,61.30
2023-03-05T12:51:57.368Z,61.10